sensor_id;sensor_type;location;lat;lon;timestamp;P1;durP1;ratioP1;P2;durP2;ratioP2
5135;SDS011;2586;48.710;9.202;2022-12-18T00:00:42;56.57;;;22.10;;
5135;SDS011;2586;48.710;9.202;2022-12-18T00:03:08;65.47;;;24.07;;
5135;SDS011;2586;48.710;9.202;2022-12-18T00:05:34;46.63;;;20.47;;
5135;SDS011;2586;48.710;9.202;2022-12-18T00:08:00;63.43;;;21.27;;
5135;SDS011;2586;48.710;9.202;2022-12-18T00:10:26;50.90;;;20.43;;
5135;SDS011;2586;48.710;9.202;2022-12-18T00:12:52;64.50;;;24.20;;
5135;SDS011;2586;48.710;9.202;2022-12-18T00:15:18;53.90;;;21.53;;
5135;SDS011;2586;48.710;9.202;2022-12-18T00:17:44;57.70;;;19.40;;
5135;SDS011;2586;48.710;9.202;2022-12-18T00:20:09;62.83;;;22.40;;
5135;SDS011;2586;48.710;9.202;2022-12-18T00:22:35;64.37;;;21.73;;
5135;SDS011;2586;48.710;9.202;2022-12-18T00:25:00;64.87;;;24.20;;
5135;SDS011;2586;48.710;9.202;2022-12-18T00:27:26;59.43;;;23.50;;
5135;SDS011;2586;48.710;9.202;2022-12-18T00:29:52;60.43;;;21.20;;
5135;SDS011;2586;48.710;9.202;2022-12-18T00:32:17;70.73;;;23.97;;
5135;SDS011;2586;48.710;9.202;2022-12-18T00:34:43;68.77;;;25.50;;
5135;SDS011;2586;48.710;9.202;2022-12-18T00:37:08;54.93;;;23.70;;
5135;SDS011;2586;48.710;9.202;2022-12-18T00:39:34;64.40;;;24.50;;
5135;SDS011;2586;48.710;9.202;2022-12-18T00:42:00;73.87;;;27.23;;
5135;SDS011;2586;48.710;9.202;2022-12-18T00:44:43;80.87;;;23.20;;
5135;SDS011;2586;48.710;9.202;2022-12-18T00:47:09;60.03;;;24.20;;
5135;SDS011;2586;48.710;9.202;2022-12-18T00:49:34;60.03;;;24.77;;
5135;SDS011;2586;48.710;9.202;2022-12-18T00:52:00;71.80;;;25.57;;
5135;SDS011;2586;48.710;9.202;2022-12-18T00:54:25;66.40;;;26.33;;
5135;SDS011;2586;48.710;9.202;2022-12-18T00:56:51;72.47;;;25.03;;
5135;SDS011;2586;48.710;9.202;2022-12-18T00:59:17;74.97;;;25.23;;
5135;SDS011;2586;48.710;9.202;2022-12-18T01:01:43;60.20;;;21.77;;
5135;SDS011;2586;48.710;9.202;2022-12-18T01:04:09;70.77;;;24.87;;
5135;SDS011;2586;48.710;9.202;2022-12-18T01:06:35;69.03;;;22.20;;
5135;SDS011;2586;48.710;9.202;2022-12-18T01:09:00;67.70;;;24.00;;
5135;SDS011;2586;48.710;9.202;2022-12-18T01:11:27;81.37;;;27.53;;
5135;SDS011;2586;48.710;9.202;2022-12-18T01:13:53;87.83;;;26.37;;
5135;SDS011;2586;48.710;9.202;2022-12-18T01:16:19;100.00;;;28.87;;
5135;SDS011;2586;48.710;9.202;2022-12-18T01:18:44;75.20;;;26.27;;
5135;SDS011;2586;48.710;9.202;2022-12-18T01:21:12;90.10;;;27.33;;
5135;SDS011;2586;48.710;9.202;2022-12-18T01:23:39;108.47;;;27.87;;
5135;SDS011;2586;48.710;9.202;2022-12-18T01:26:09;140.37;;;30.87;;
5135;SDS011;2586;48.710;9.202;2022-12-18T01:28:38;117.23;;;33.37;;
5135;SDS011;2586;48.710;9.202;2022-12-18T01:31:15;108.07;;;33.97;;
5135;SDS011;2586;48.710;9.202;2022-12-18T01:33:43;159.90;;;36.30;;
5135;SDS011;2586;48.710;9.202;2022-12-18T01:36:13;148.77;;;29.90;;
5135;SDS011;2586;48.710;9.202;2022-12-18T01:38:40;127.17;;;31.27;;
5135;SDS011;2586;48.710;9.202;2022-12-18T01:41:06;108.20;;;28.47;;
5135;SDS011;2586;48.710;9.202;2022-12-18T01:46:54;64.13;;;26.57;;
5135;SDS011;2586;48.710;9.202;2022-12-18T01:49:19;77.83;;;28.07;;
5135;SDS011;2586;48.710;9.202;2022-12-18T01:51:45;92.00;;;27.80;;
5135;SDS011;2586;48.710;9.202;2022-12-18T01:54:11;83.87;;;28.00;;
5135;SDS011;2586;48.710;9.202;2022-12-18T01:56:36;72.27;;;23.30;;
5135;SDS011;2586;48.710;9.202;2022-12-18T01:59:02;63.23;;;23.40;;
5135;SDS011;2586;48.710;9.202;2022-12-18T02:01:31;65.67;;;23.50;;
5135;SDS011;2586;48.710;9.202;2022-12-18T02:04:18;63.70;;;23.30;;
5135;SDS011;2586;48.710;9.202;2022-12-18T02:06:45;63.60;;;23.07;;
5135;SDS011;2586;48.710;9.202;2022-12-18T02:09:19;59.23;;;24.70;;
5135;SDS011;2586;48.710;9.202;2022-12-18T02:11:51;57.03;;;23.00;;
5135;SDS011;2586;48.710;9.202;2022-12-18T02:14:35;51.10;;;22.23;;
5135;SDS011;2586;48.710;9.202;2022-12-18T02:17:26;62.67;;;24.50;;
5135;SDS011;2586;48.710;9.202;2022-12-18T02:21:04;45.33;;;19.50;;
5135;SDS011;2586;48.710;9.202;2022-12-18T02:26:26;38.13;;;18.10;;
5135;SDS011;2586;48.710;9.202;2022-12-18T02:28:59;43.27;;;19.57;;
5135;SDS011;2586;48.710;9.202;2022-12-18T02:31:30;46.97;;;20.90;;
5135;SDS011;2586;48.710;9.202;2022-12-18T02:34:01;54.50;;;21.30;;
5135;SDS011;2586;48.710;9.202;2022-12-18T02:36:29;51.23;;;20.20;;
5135;SDS011;2586;48.710;9.202;2022-12-18T02:38:57;49.63;;;18.70;;
5135;SDS011;2586;48.710;9.202;2022-12-18T02:41:24;61.17;;;23.70;;
5135;SDS011;2586;48.710;9.202;2022-12-18T02:43:58;53.27;;;21.27;;
5135;SDS011;2586;48.710;9.202;2022-12-18T02:46:28;52.33;;;21.20;;
5135;SDS011;2586;48.710;9.202;2022-12-18T02:48:57;42.03;;;20.20;;
5135;SDS011;2586;48.710;9.202;2022-12-18T02:51:53;49.50;;;19.33;;
5135;SDS011;2586;48.710;9.202;2022-12-18T02:55:19;50.80;;;20.87;;
5135;SDS011;2586;48.710;9.202;2022-12-18T03:00:53;51.03;;;19.50;;
5135;SDS011;2586;48.710;9.202;2022-12-18T03:03:39;45.47;;;17.90;;
5135;SDS011;2586;48.710;9.202;2022-12-18T03:06:10;48.50;;;20.90;;
5135;SDS011;2586;48.710;9.202;2022-12-18T03:08:42;43.53;;;18.97;;
5135;SDS011;2586;48.710;9.202;2022-12-18T03:11:12;60.60;;;21.97;;
5135;SDS011;2586;48.710;9.202;2022-12-18T03:16:06;61.23;;;21.83;;
5135;SDS011;2586;48.710;9.202;2022-12-18T03:21:07;43.47;;;19.40;;
5135;SDS011;2586;48.710;9.202;2022-12-18T03:23:42;56.83;;;20.50;;
5135;SDS011;2586;48.710;9.202;2022-12-18T03:26:12;50.17;;;18.40;;
5135;SDS011;2586;48.710;9.202;2022-12-18T03:28:45;58.80;;;21.30;;
5135;SDS011;2586;48.710;9.202;2022-12-18T03:31:15;68.53;;;21.93;;
5135;SDS011;2586;48.710;9.202;2022-12-18T03:33:55;50.60;;;22.03;;
5135;SDS011;2586;48.710;9.202;2022-12-18T03:36:24;50.30;;;21.23;;
5135;SDS011;2586;48.710;9.202;2022-12-18T03:38:50;53.53;;;21.00;;
5135;SDS011;2586;48.710;9.202;2022-12-18T03:41:18;61.33;;;23.60;;
5135;SDS011;2586;48.710;9.202;2022-12-18T03:43:52;70.83;;;23.10;;
5135;SDS011;2586;48.710;9.202;2022-12-18T03:46:32;52.53;;;20.93;;
5135;SDS011;2586;48.710;9.202;2022-12-18T03:49:13;56.57;;;22.50;;
5135;SDS011;2586;48.710;9.202;2022-12-18T03:54:16;57.93;;;20.57;;
5135;SDS011;2586;48.710;9.202;2022-12-18T03:56:44;58.23;;;22.23;;
5135;SDS011;2586;48.710;9.202;2022-12-18T03:59:13;54.97;;;20.20;;
5135;SDS011;2586;48.710;9.202;2022-12-18T04:01:42;63.47;;;22.77;;
5135;SDS011;2586;48.710;9.202;2022-12-18T04:04:12;54.97;;;20.53;;
5135;SDS011;2586;48.710;9.202;2022-12-18T04:06:40;56.83;;;21.07;;
5135;SDS011;2586;48.710;9.202;2022-12-18T04:09:07;60.37;;;21.33;;
5135;SDS011;2586;48.710;9.202;2022-12-18T04:11:33;64.70;;;21.87;;
5135;SDS011;2586;48.710;9.202;2022-12-18T04:13:58;52.37;;;21.70;;
5135;SDS011;2586;48.710;9.202;2022-12-18T04:16:25;51.47;;;18.80;;
5135;SDS011;2586;48.710;9.202;2022-12-18T04:18:51;68.50;;;22.20;;
5135;SDS011;2586;48.710;9.202;2022-12-18T04:21:18;53.67;;;20.80;;
5135;SDS011;2586;48.710;9.202;2022-12-18T04:23:44;57.70;;;21.17;;
5135;SDS011;2586;48.710;9.202;2022-12-18T04:26:09;56.23;;;21.23;;
5135;SDS011;2586;48.710;9.202;2022-12-18T04:28:35;50.00;;;20.40;;
5135;SDS011;2586;48.710;9.202;2022-12-18T04:31:00;46.83;;;18.63;;
5135;SDS011;2586;48.710;9.202;2022-12-18T04:33:26;54.30;;;19.47;;
5135;SDS011;2586;48.710;9.202;2022-12-18T04:35:52;53.27;;;19.60;;
5135;SDS011;2586;48.710;9.202;2022-12-18T04:38:18;55.27;;;17.97;;
5135;SDS011;2586;48.710;9.202;2022-12-18T04:40:43;50.93;;;18.37;;
5135;SDS011;2586;48.710;9.202;2022-12-18T04:43:09;49.77;;;18.57;;
5135;SDS011;2586;48.710;9.202;2022-12-18T04:45:35;49.23;;;21.03;;
5135;SDS011;2586;48.710;9.202;2022-12-18T04:48:01;42.10;;;17.43;;
5135;SDS011;2586;48.710;9.202;2022-12-18T04:50:27;40.60;;;18.13;;
5135;SDS011;2586;48.710;9.202;2022-12-18T04:52:53;54.40;;;19.80;;
5135;SDS011;2586;48.710;9.202;2022-12-18T04:55:19;62.07;;;20.80;;
5135;SDS011;2586;48.710;9.202;2022-12-18T04:57:45;49.47;;;19.60;;
5135;SDS011;2586;48.710;9.202;2022-12-18T05:00:10;55.90;;;20.93;;
5135;SDS011;2586;48.710;9.202;2022-12-18T05:02:36;63.17;;;22.57;;
5135;SDS011;2586;48.710;9.202;2022-12-18T05:05:02;63.60;;;17.17;;
5135;SDS011;2586;48.710;9.202;2022-12-18T05:07:28;56.10;;;20.40;;
5135;SDS011;2586;48.710;9.202;2022-12-18T05:09:53;51.67;;;18.67;;
5135;SDS011;2586;48.710;9.202;2022-12-18T05:12:19;60.67;;;20.30;;
5135;SDS011;2586;48.710;9.202;2022-12-18T05:14:44;39.13;;;16.93;;
5135;SDS011;2586;48.710;9.202;2022-12-18T05:17:10;49.20;;;18.30;;
5135;SDS011;2586;48.710;9.202;2022-12-18T05:19:35;42.77;;;15.67;;
5135;SDS011;2586;48.710;9.202;2022-12-18T05:22:02;48.47;;;17.03;;
5135;SDS011;2586;48.710;9.202;2022-12-18T05:24:28;43.80;;;18.40;;
5135;SDS011;2586;48.710;9.202;2022-12-18T05:26:53;54.90;;;19.20;;
5135;SDS011;2586;48.710;9.202;2022-12-18T05:29:19;54.13;;;16.40;;
5135;SDS011;2586;48.710;9.202;2022-12-18T05:31:44;42.90;;;16.37;;
5135;SDS011;2586;48.710;9.202;2022-12-18T05:34:10;50.70;;;17.13;;
5135;SDS011;2586;48.710;9.202;2022-12-18T05:36:36;45.83;;;18.57;;
5135;SDS011;2586;48.710;9.202;2022-12-18T05:39:01;45.87;;;18.20;;
5135;SDS011;2586;48.710;9.202;2022-12-18T05:41:27;39.93;;;16.10;;
5135;SDS011;2586;48.710;9.202;2022-12-18T05:43:53;54.60;;;17.07;;
5135;SDS011;2586;48.710;9.202;2022-12-18T05:46:19;52.77;;;17.53;;
5135;SDS011;2586;48.710;9.202;2022-12-18T05:48:45;34.30;;;14.57;;
5135;SDS011;2586;48.710;9.202;2022-12-18T05:51:13;45.10;;;17.33;;
5135;SDS011;2586;48.710;9.202;2022-12-18T05:53:40;50.27;;;16.50;;
5135;SDS011;2586;48.710;9.202;2022-12-18T05:56:08;53.43;;;17.57;;
5135;SDS011;2586;48.710;9.202;2022-12-18T05:58:39;48.37;;;16.77;;
5135;SDS011;2586;48.710;9.202;2022-12-18T06:01:19;42.27;;;15.80;;
5135;SDS011;2586;48.710;9.202;2022-12-18T06:03:46;45.80;;;18.17;;
5135;SDS011;2586;48.710;9.202;2022-12-18T06:06:25;51.73;;;17.13;;
5135;SDS011;2586;48.710;9.202;2022-12-18T06:08:52;43.20;;;16.70;;
5135;SDS011;2586;48.710;9.202;2022-12-18T06:11:19;46.83;;;16.43;;
5135;SDS011;2586;48.710;9.202;2022-12-18T06:13:51;42.23;;;16.90;;
5135;SDS011;2586;48.710;9.202;2022-12-18T06:16:20;44.17;;;16.20;;
5135;SDS011;2586;48.710;9.202;2022-12-18T06:18:46;47.87;;;18.30;;
5135;SDS011;2586;48.710;9.202;2022-12-18T06:21:12;46.27;;;16.80;;
5135;SDS011;2586;48.710;9.202;2022-12-18T06:23:37;59.47;;;16.33;;
5135;SDS011;2586;48.710;9.202;2022-12-18T06:26:06;39.70;;;14.10;;
5135;SDS011;2586;48.710;9.202;2022-12-18T06:28:33;53.27;;;17.40;;
5135;SDS011;2586;48.710;9.202;2022-12-18T06:30:59;64.60;;;17.80;;
5135;SDS011;2586;48.710;9.202;2022-12-18T06:33:28;52.03;;;17.70;;
5135;SDS011;2586;48.710;9.202;2022-12-18T06:35:54;52.13;;;16.70;;
5135;SDS011;2586;48.710;9.202;2022-12-18T06:38:24;40.23;;;13.93;;
5135;SDS011;2586;48.710;9.202;2022-12-18T06:40:49;47.70;;;14.97;;
5135;SDS011;2586;48.710;9.202;2022-12-18T06:43:15;48.53;;;16.57;;
5135;SDS011;2586;48.710;9.202;2022-12-18T06:45:40;38.63;;;15.07;;
5135;SDS011;2586;48.710;9.202;2022-12-18T06:48:07;51.33;;;18.17;;
5135;SDS011;2586;48.710;9.202;2022-12-18T06:50:32;48.43;;;17.10;;
5135;SDS011;2586;48.710;9.202;2022-12-18T06:52:58;41.53;;;16.13;;
5135;SDS011;2586;48.710;9.202;2022-12-18T06:55:24;46.50;;;18.10;;
5135;SDS011;2586;48.710;9.202;2022-12-18T06:57:50;48.90;;;17.07;;
5135;SDS011;2586;48.710;9.202;2022-12-18T07:00:15;57.20;;;19.47;;
5135;SDS011;2586;48.710;9.202;2022-12-18T07:02:41;53.23;;;16.77;;
5135;SDS011;2586;48.710;9.202;2022-12-18T07:05:07;41.20;;;15.67;;
5135;SDS011;2586;48.710;9.202;2022-12-18T07:07:33;46.77;;;15.43;;
5135;SDS011;2586;48.710;9.202;2022-12-18T07:09:59;47.93;;;14.57;;
5135;SDS011;2586;48.710;9.202;2022-12-18T07:12:26;45.43;;;15.80;;
5135;SDS011;2586;48.710;9.202;2022-12-18T07:14:52;41.47;;;16.27;;
5135;SDS011;2586;48.710;9.202;2022-12-18T07:17:18;44.10;;;15.23;;
5135;SDS011;2586;48.710;9.202;2022-12-18T07:19:43;43.20;;;15.07;;
5135;SDS011;2586;48.710;9.202;2022-12-18T07:22:09;45.43;;;16.67;;
5135;SDS011;2586;48.710;9.202;2022-12-18T07:24:35;47.73;;;16.30;;
5135;SDS011;2586;48.710;9.202;2022-12-18T07:27:01;56.53;;;15.53;;
5135;SDS011;2586;48.710;9.202;2022-12-18T07:29:27;46.83;;;17.50;;
5135;SDS011;2586;48.710;9.202;2022-12-18T07:31:52;46.17;;;19.00;;
5135;SDS011;2586;48.710;9.202;2022-12-18T07:34:18;39.90;;;15.13;;
5135;SDS011;2586;48.710;9.202;2022-12-18T07:36:43;63.23;;;19.17;;
5135;SDS011;2586;48.710;9.202;2022-12-18T07:39:10;60.33;;;19.40;;
5135;SDS011;2586;48.710;9.202;2022-12-18T07:41:36;49.30;;;17.93;;
5135;SDS011;2586;48.710;9.202;2022-12-18T07:44:01;42.93;;;15.00;;
5135;SDS011;2586;48.710;9.202;2022-12-18T07:46:27;55.90;;;17.57;;
5135;SDS011;2586;48.710;9.202;2022-12-18T07:48:53;44.80;;;16.77;;
5135;SDS011;2586;48.710;9.202;2022-12-18T07:51:18;49.07;;;15.10;;
5135;SDS011;2586;48.710;9.202;2022-12-18T07:53:46;43.93;;;17.50;;
5135;SDS011;2586;48.710;9.202;2022-12-18T07:56:12;45.70;;;18.00;;
5135;SDS011;2586;48.710;9.202;2022-12-18T07:58:38;43.43;;;16.00;;
5135;SDS011;2586;48.710;9.202;2022-12-18T08:01:10;40.80;;;15.90;;
5135;SDS011;2586;48.710;9.202;2022-12-18T08:03:37;40.80;;;16.67;;
5135;SDS011;2586;48.710;9.202;2022-12-18T08:06:04;39.70;;;15.13;;
5135;SDS011;2586;48.710;9.202;2022-12-18T08:08:31;54.77;;;16.33;;
5135;SDS011;2586;48.710;9.202;2022-12-18T08:10:57;43.67;;;16.67;;
5135;SDS011;2586;48.710;9.202;2022-12-18T08:13:23;41.97;;;17.67;;
5135;SDS011;2586;48.710;9.202;2022-12-18T08:15:59;38.80;;;16.00;;
5135;SDS011;2586;48.710;9.202;2022-12-18T08:18:29;55.33;;;19.40;;
5135;SDS011;2586;48.710;9.202;2022-12-18T08:21:12;37.80;;;15.83;;
5135;SDS011;2586;48.710;9.202;2022-12-18T08:23:40;46.50;;;17.20;;
5135;SDS011;2586;48.710;9.202;2022-12-18T08:26:05;45.43;;;17.93;;
5135;SDS011;2586;48.710;9.202;2022-12-18T08:28:31;45.53;;;19.53;;
5135;SDS011;2586;48.710;9.202;2022-12-18T08:30:57;48.07;;;20.70;;
5135;SDS011;2586;48.710;9.202;2022-12-18T08:33:23;41.90;;;18.00;;
5135;SDS011;2586;48.710;9.202;2022-12-18T08:35:49;54.43;;;20.00;;
5135;SDS011;2586;48.710;9.202;2022-12-18T08:38:14;48.57;;;18.67;;
5135;SDS011;2586;48.710;9.202;2022-12-18T08:40:40;54.60;;;19.63;;
5135;SDS011;2586;48.710;9.202;2022-12-18T08:43:07;52.90;;;21.90;;
5135;SDS011;2586;48.710;9.202;2022-12-18T08:45:53;67.53;;;25.60;;
5135;SDS011;2586;48.710;9.202;2022-12-18T08:48:19;58.70;;;25.70;;
5135;SDS011;2586;48.710;9.202;2022-12-18T08:50:53;68.73;;;24.23;;
5135;SDS011;2586;48.710;9.202;2022-12-18T08:53:19;52.37;;;21.63;;
5135;SDS011;2586;48.710;9.202;2022-12-18T08:55:45;58.00;;;24.83;;
5135;SDS011;2586;48.710;9.202;2022-12-18T08:58:10;45.80;;;21.17;;
5135;SDS011;2586;48.710;9.202;2022-12-18T09:00:36;62.47;;;22.30;;
5135;SDS011;2586;48.710;9.202;2022-12-18T09:03:02;53.73;;;22.67;;
5135;SDS011;2586;48.710;9.202;2022-12-18T09:05:27;57.03;;;23.37;;
5135;SDS011;2586;48.710;9.202;2022-12-18T09:07:53;50.70;;;21.90;;
5135;SDS011;2586;48.710;9.202;2022-12-18T09:10:18;56.97;;;22.17;;
5135;SDS011;2586;48.710;9.202;2022-12-18T09:12:44;58.27;;;22.30;;
5135;SDS011;2586;48.710;9.202;2022-12-18T09:15:09;55.90;;;20.97;;
5135;SDS011;2586;48.710;9.202;2022-12-18T09:17:35;49.10;;;21.00;;
5135;SDS011;2586;48.710;9.202;2022-12-18T09:20:00;51.30;;;23.53;;
5135;SDS011;2586;48.710;9.202;2022-12-18T09:22:26;60.73;;;23.07;;
5135;SDS011;2586;48.710;9.202;2022-12-18T09:24:51;54.73;;;23.60;;
5135;SDS011;2586;48.710;9.202;2022-12-18T09:27:17;53.87;;;21.60;;
5135;SDS011;2586;48.710;9.202;2022-12-18T09:29:42;62.93;;;23.97;;
5135;SDS011;2586;48.710;9.202;2022-12-18T09:32:08;48.73;;;20.13;;
5135;SDS011;2586;48.710;9.202;2022-12-18T09:34:34;47.63;;;21.30;;
5135;SDS011;2586;48.710;9.202;2022-12-18T09:36:59;42.33;;;19.73;;
5135;SDS011;2586;48.710;9.202;2022-12-18T09:39:25;53.73;;;21.57;;
5135;SDS011;2586;48.710;9.202;2022-12-18T09:41:54;51.33;;;21.70;;
5135;SDS011;2586;48.710;9.202;2022-12-18T09:47:16;53.73;;;21.67;;
5135;SDS011;2586;48.710;9.202;2022-12-18T09:49:46;53.37;;;21.27;;
5135;SDS011;2586;48.710;9.202;2022-12-18T09:54:50;46.83;;;21.20;;
5135;SDS011;2586;48.710;9.202;2022-12-18T09:57:24;40.37;;;20.80;;
5135;SDS011;2586;48.710;9.202;2022-12-18T09:59:58;49.77;;;22.93;;
5135;SDS011;2586;48.710;9.202;2022-12-18T10:02:43;50.87;;;20.47;;
5135;SDS011;2586;48.710;9.202;2022-12-18T10:10:48;47.33;;;21.23;;
5135;SDS011;2586;48.710;9.202;2022-12-18T10:13:29;43.20;;;21.63;;
5135;SDS011;2586;48.710;9.202;2022-12-18T10:18:55;45.37;;;21.53;;
5135;SDS011;2586;48.710;9.202;2022-12-18T10:21:31;60.90;;;26.43;;
5135;SDS011;2586;48.710;9.202;2022-12-18T10:26:50;47.17;;;22.63;;
5135;SDS011;2586;48.710;9.202;2022-12-18T10:29:18;49.53;;;23.93;;
5135;SDS011;2586;48.710;9.202;2022-12-18T10:31:44;48.43;;;23.93;;
5135;SDS011;2586;48.710;9.202;2022-12-18T10:34:10;59.07;;;25.80;;
5135;SDS011;2586;48.710;9.202;2022-12-18T10:36:39;66.27;;;26.13;;
5135;SDS011;2586;48.710;9.202;2022-12-18T10:39:22;61.30;;;25.33;;
5135;SDS011;2586;48.710;9.202;2022-12-18T10:41:50;49.03;;;25.10;;
5135;SDS011;2586;48.710;9.202;2022-12-18T10:46:46;48.73;;;23.97;;
5135;SDS011;2586;48.710;9.202;2022-12-18T10:49:18;52.90;;;25.83;;
5135;SDS011;2586;48.710;9.202;2022-12-18T10:51:47;55.03;;;25.07;;
5135;SDS011;2586;48.710;9.202;2022-12-18T10:54:21;49.90;;;25.63;;
5135;SDS011;2586;48.710;9.202;2022-12-18T10:56:48;55.13;;;24.93;;
5135;SDS011;2586;48.710;9.202;2022-12-18T10:59:15;47.97;;;24.03;;
5135;SDS011;2586;48.710;9.202;2022-12-18T11:01:46;54.67;;;24.50;;
5135;SDS011;2586;48.710;9.202;2022-12-18T11:04:19;51.03;;;24.33;;
5135;SDS011;2586;48.710;9.202;2022-12-18T11:07:04;59.70;;;26.03;;
5135;SDS011;2586;48.710;9.202;2022-12-18T11:09:32;62.53;;;23.80;;
5135;SDS011;2586;48.710;9.202;2022-12-18T11:12:08;61.93;;;27.33;;
5135;SDS011;2586;48.710;9.202;2022-12-18T11:14:47;61.50;;;24.77;;
5135;SDS011;2586;48.710;9.202;2022-12-18T11:17:29;52.00;;;24.20;;
5135;SDS011;2586;48.710;9.202;2022-12-18T11:20:00;55.83;;;24.77;;
5135;SDS011;2586;48.710;9.202;2022-12-18T11:22:29;48.53;;;24.93;;
5135;SDS011;2586;48.710;9.202;2022-12-18T11:27:30;45.30;;;23.70;;
5135;SDS011;2586;48.710;9.202;2022-12-18T11:32:47;48.27;;;21.80;;
5135;SDS011;2586;48.710;9.202;2022-12-18T11:35:32;40.63;;;22.07;;
5135;SDS011;2586;48.710;9.202;2022-12-18T11:38:02;48.80;;;22.03;;
5135;SDS011;2586;48.710;9.202;2022-12-18T11:40:36;35.00;;;21.47;;
5135;SDS011;2586;48.710;9.202;2022-12-18T11:48:47;31.90;;;19.37;;
5135;SDS011;2586;48.710;9.202;2022-12-18T11:51:26;42.37;;;19.50;;
5135;SDS011;2586;48.710;9.202;2022-12-18T11:54:13;43.73;;;20.53;;
5135;SDS011;2586;48.710;9.202;2022-12-18T11:56:46;35.07;;;19.47;;
5135;SDS011;2586;48.710;9.202;2022-12-18T11:59:29;38.87;;;19.33;;
5135;SDS011;2586;48.710;9.202;2022-12-18T12:02:34;35.90;;;20.30;;
5135;SDS011;2586;48.710;9.202;2022-12-18T12:05:16;33.10;;;18.47;;
5135;SDS011;2586;48.710;9.202;2022-12-18T12:18:57;37.13;;;19.87;;
5135;SDS011;2586;48.710;9.202;2022-12-18T12:21:47;44.17;;;21.27;;
5135;SDS011;2586;48.710;9.202;2022-12-18T12:30:35;37.90;;;18.10;;
5135;SDS011;2586;48.710;9.202;2022-12-18T12:33:44;44.00;;;19.60;;
5135;SDS011;2586;48.710;9.202;2022-12-18T12:36:57;44.70;;;20.73;;
5135;SDS011;2586;48.710;9.202;2022-12-18T12:39:17;38.50;;;18.67;;
5135;SDS011;2586;48.710;9.202;2022-12-18T12:41:48;45.13;;;19.60;;
5135;SDS011;2586;48.710;9.202;2022-12-18T12:44:33;40.87;;;19.43;;
5135;SDS011;2586;48.710;9.202;2022-12-18T12:47:07;37.47;;;19.07;;
5135;SDS011;2586;48.710;9.202;2022-12-18T12:49:46;49.07;;;20.10;;
5135;SDS011;2586;48.710;9.202;2022-12-18T12:55:23;46.97;;;20.60;;
5135;SDS011;2586;48.710;9.202;2022-12-18T13:00:36;45.93;;;19.10;;
5135;SDS011;2586;48.710;9.202;2022-12-18T13:03:18;40.77;;;19.03;;
5135;SDS011;2586;48.710;9.202;2022-12-18T13:06:29;46.70;;;20.57;;
5135;SDS011;2586;48.710;9.202;2022-12-18T13:08:56;43.60;;;19.77;;
5135;SDS011;2586;48.710;9.202;2022-12-18T13:11:34;38.87;;;19.77;;
5135;SDS011;2586;48.710;9.202;2022-12-18T13:17:22;44.03;;;19.30;;
5135;SDS011;2586;48.710;9.202;2022-12-18T13:22:57;36.53;;;17.97;;
5135;SDS011;2586;48.710;9.202;2022-12-18T13:25:29;47.83;;;21.40;;
5135;SDS011;2586;48.710;9.202;2022-12-18T13:33:40;40.27;;;19.13;;
5135;SDS011;2586;48.710;9.202;2022-12-18T13:36:31;40.17;;;19.33;;
5135;SDS011;2586;48.710;9.202;2022-12-18T13:38:42;37.07;;;17.73;;
5135;SDS011;2586;48.710;9.202;2022-12-18T13:43:55;39.13;;;17.93;;
5135;SDS011;2586;48.710;9.202;2022-12-18T13:46:44;38.73;;;19.57;;
5135;SDS011;2586;48.710;9.202;2022-12-18T13:51:39;49.03;;;20.30;;
5135;SDS011;2586;48.710;9.202;2022-12-18T13:57:04;43.23;;;19.93;;
5135;SDS011;2586;48.710;9.202;2022-12-18T13:59:49;35.97;;;19.20;;
5135;SDS011;2586;48.710;9.202;2022-12-18T14:02:17;37.83;;;17.30;;
5135;SDS011;2586;48.710;9.202;2022-12-18T14:04:49;43.07;;;19.80;;
5135;SDS011;2586;48.710;9.202;2022-12-18T14:09:50;38.23;;;17.10;;
5135;SDS011;2586;48.710;9.202;2022-12-18T14:12:19;40.23;;;18.73;;
5135;SDS011;2586;48.710;9.202;2022-12-18T14:15:09;47.33;;;18.67;;
5135;SDS011;2586;48.710;9.202;2022-12-18T14:17:49;44.10;;;20.77;;
5135;SDS011;2586;48.710;9.202;2022-12-18T14:20:15;60.27;;;23.17;;
5135;SDS011;2586;48.710;9.202;2022-12-18T14:22:43;45.43;;;22.40;;
5135;SDS011;2586;48.710;9.202;2022-12-18T14:27:48;53.90;;;21.90;;
5135;SDS011;2586;48.710;9.202;2022-12-18T14:30:23;44.93;;;20.93;;
5135;SDS011;2586;48.710;9.202;2022-12-18T14:35:28;46.60;;;22.30;;
5135;SDS011;2586;48.710;9.202;2022-12-18T14:37:55;55.27;;;24.20;;
5135;SDS011;2586;48.710;9.202;2022-12-18T14:40:36;60.73;;;25.57;;
5135;SDS011;2586;48.710;9.202;2022-12-18T14:43:01;56.13;;;23.57;;
5135;SDS011;2586;48.710;9.202;2022-12-18T14:48:15;54.70;;;25.70;;
5135;SDS011;2586;48.710;9.202;2022-12-18T14:50:44;49.83;;;21.33;;
5135;SDS011;2586;48.710;9.202;2022-12-18T14:53:19;43.70;;;22.67;;
5135;SDS011;2586;48.710;9.202;2022-12-18T14:55:48;57.27;;;22.57;;
5135;SDS011;2586;48.710;9.202;2022-12-18T14:58:15;58.93;;;25.50;;
5135;SDS011;2586;48.710;9.202;2022-12-18T15:00:42;47.70;;;21.00;;
5135;SDS011;2586;48.710;9.202;2022-12-18T15:03:08;53.90;;;22.00;;
5135;SDS011;2586;48.710;9.202;2022-12-18T15:05:34;45.63;;;21.10;;
5135;SDS011;2586;48.710;9.202;2022-12-18T15:08:01;56.33;;;21.30;;
5135;SDS011;2586;48.710;9.202;2022-12-18T15:10:31;59.70;;;25.27;;
5135;SDS011;2586;48.710;9.202;2022-12-18T15:17:59;46.40;;;20.50;;
5135;SDS011;2586;48.710;9.202;2022-12-18T15:20:26;60.57;;;24.77;;
5135;SDS011;2586;48.710;9.202;2022-12-18T15:22:51;58.87;;;25.07;;
5135;SDS011;2586;48.710;9.202;2022-12-18T15:25:24;56.40;;;23.13;;
5135;SDS011;2586;48.710;9.202;2022-12-18T15:27:59;56.53;;;26.13;;
5135;SDS011;2586;48.710;9.202;2022-12-18T15:30:25;59.00;;;25.63;;
5135;SDS011;2586;48.710;9.202;2022-12-18T15:32:51;52.70;;;22.20;;
5135;SDS011;2586;48.710;9.202;2022-12-18T15:35:21;66.40;;;27.20;;
5135;SDS011;2586;48.710;9.202;2022-12-18T15:37:49;63.50;;;24.13;;
5135;SDS011;2586;48.710;9.202;2022-12-18T15:40:19;62.27;;;25.07;;
5135;SDS011;2586;48.710;9.202;2022-12-18T15:42:48;50.53;;;23.00;;
5135;SDS011;2586;48.710;9.202;2022-12-18T15:45:36;57.30;;;23.60;;
5135;SDS011;2586;48.710;9.202;2022-12-18T15:48:01;71.93;;;26.47;;
5135;SDS011;2586;48.710;9.202;2022-12-18T15:50:42;61.80;;;25.70;;
5135;SDS011;2586;48.710;9.202;2022-12-18T15:53:08;59.50;;;26.10;;
5135;SDS011;2586;48.710;9.202;2022-12-18T15:55:34;80.10;;;28.80;;
5135;SDS011;2586;48.710;9.202;2022-12-18T15:58:18;58.83;;;24.97;;
5135;SDS011;2586;48.710;9.202;2022-12-18T16:00:45;67.20;;;26.97;;
5135;SDS011;2586;48.710;9.202;2022-12-18T16:03:10;61.00;;;26.70;;
5135;SDS011;2586;48.710;9.202;2022-12-18T16:05:36;60.20;;;28.10;;
5135;SDS011;2586;48.710;9.202;2022-12-18T16:08:01;61.33;;;26.03;;
5135;SDS011;2586;48.710;9.202;2022-12-18T16:10:27;58.77;;;26.00;;
5135;SDS011;2586;48.710;9.202;2022-12-18T16:12:53;67.73;;;26.10;;
5135;SDS011;2586;48.710;9.202;2022-12-18T16:15:19;61.20;;;25.80;;
5135;SDS011;2586;48.710;9.202;2022-12-18T16:17:45;78.70;;;29.57;;
5135;SDS011;2586;48.710;9.202;2022-12-18T16:20:12;71.43;;;29.70;;
5135;SDS011;2586;48.710;9.202;2022-12-18T16:22:40;75.90;;;28.90;;
5135;SDS011;2586;48.710;9.202;2022-12-18T16:25:08;92.17;;;32.17;;
5135;SDS011;2586;48.710;9.202;2022-12-18T16:27:42;73.80;;;30.80;;
5135;SDS011;2586;48.710;9.202;2022-12-18T16:30:11;74.23;;;30.43;;
5135;SDS011;2586;48.710;9.202;2022-12-18T16:32:38;74.63;;;27.57;;
5135;SDS011;2586;48.710;9.202;2022-12-18T16:35:03;81.47;;;29.07;;
5135;SDS011;2586;48.710;9.202;2022-12-18T16:37:29;70.47;;;28.53;;
5135;SDS011;2586;48.710;9.202;2022-12-18T16:39:55;72.77;;;27.37;;
5135;SDS011;2586;48.710;9.202;2022-12-18T16:42:20;73.43;;;28.70;;
5135;SDS011;2586;48.710;9.202;2022-12-18T16:44:46;75.43;;;28.83;;
5135;SDS011;2586;48.710;9.202;2022-12-18T16:47:13;65.10;;;27.43;;
5135;SDS011;2586;48.710;9.202;2022-12-18T16:49:38;65.80;;;29.07;;